Flight Track Log - Related Links

Times and Time Zones

All times are in EDT time to prevent confusion due to time zone crossing. See the N53NW flight status page for this flight to view local times or setup timezone preferences in your user account.

Time Position Orientation Groundspeed Altitude Reporting Facility
EDT Latitude Longitude Course Direction KTS MPH feet Rate Location/Type
Thu 01:32:54 PM 30.1086 -97.7006 325° Northwest 234 269 6,100  Level Houston Center
Thu 01:33:57 PM 30.1769 -97.7519 327° Northwest 253 291 9,900 2,976 Climbing Houston Center
Thu 01:34:59 PM 30.2494 -97.7789 342° North 265 305 12,300 2,468 Climbing Houston Center
Thu 01:36:00 PM 30.2595 -97.6746 84° East  Level FlightAware Approximate
Thu 01:36:01 PM 30.3264 -97.8097 84° East 282 325 15,000  Level Houston Center
Thu 01:37:00 PM 30.7293 -97.6677 330° Northwest  Level Estimated
Thu 01:38:00 PM 30.8185 -97.6674 325° Northwest  Level Estimated
Thu 01:38:00 PM 30.5031 -97.8045 North  Level Estimated
Thu 01:38:05 PM 30.4747 -97.8669 North 276 318 19,700  Level Houston Center
Thu 01:39:07 PM 30.5508 -97.8969 341° North 282 325 21,700 1,935 Climbing Houston Center
Thu 01:40:09 PM 30.6325 -97.9278 342° North 300 345 23,700 1,984 Climbing Houston Center
Thu 01:41:11 PM 30.7142 -97.9594 342° North 304 350 25,800 1,984 Climbing Houston Center
Thu 01:42:13 PM 30.7956 -97.9908 342° North 303 349 27,800 2,081 Climbing Houston Center
Thu 01:43:15 PM 30.8897 -98.0275 342° North 301 346 30,100 1,935 Climbing Houston Center
Thu 01:44:17 PM 30.9703 -98.0592 341° North 301 346 31,800 1,597 Climbing Houston Center
Thu 01:45:19 PM 31.0533 -98.0906 342° North 307 353 33,400 1,073 Climbing Houston Center
Thu 01:46:20 PM 31.1422 -98.1269 341° North 307 353 34,000 298 Climbing Fort Worth Center
Thu 01:47:20 PM 31.2447 -98.1325 357° North 340 391 34,000  Level Fort Worth Center
Thu 01:48:20 PM 31.3575 -98.1067 11° North 380 437 34,000 50 Level Fort Worth Center
Thu 01:49:20 PM 31.4703 -98.0808 11° North 409 471 34,100 500 Climbing Fort Worth Center
Thu 01:50:20 PM 31.5769 -98.0572 11° North 398 458 35,000 450 Climbing Fort Worth Center
Thu 01:51:20 PM 31.6731 -98.0333 12° North 392 451 35,000  Level Fort Worth Center
Thu 01:52:20 PM 31.7817 -98.0097 10° North 403 464 35,000  Level Fort Worth Center
Thu 01:53:20 PM 31.8967 -97.9836 11° North 403 464 35,000  Level Fort Worth Center
Thu 01:54:20 PM 32.0158 -97.9597 10° North 403 464 35,000  Level Fort Worth Center
Thu 01:55:20 PM 32.1267 -97.9333 11° North 403 464 35,000  Level Fort Worth Center
Thu 01:56:20 PM 32.2375 -97.9069 11° North 403 464 35,000  Level Fort Worth Center
Thu 01:57:20 PM 32.3503 -97.8831 10° North 403 464 35,000  Level Fort Worth Center
Thu 01:58:20 PM 32.4608 -97.8567 11° North 403 464 35,000  Level Fort Worth Center
Thu 01:59:20 PM 32.5675 -97.8325 11° North 403 464 35,000  Level Fort Worth Center
Thu 02:00:20 PM 32.6783 -97.8058 11° North 398 458 35,000  Level Fort Worth Center
Thu 02:01:20 PM 32.7869 -97.7817 11° North 393 452 35,000  Level Fort Worth Center
Thu 02:02:20 PM 32.8956 -97.7550 12° North 393 452 35,000  Level Fort Worth Center
Thu 02:03:20 PM 33.0042 -97.7331 10° North 393 452 35,000  Level Fort Worth Center
Thu 02:04:20 PM 33.1128 -97.7061 12° North 393 452 35,000  Level Fort Worth Center
Thu 02:05:20 PM 33.2192 -97.6817 11° North 393 452 35,000  Level Fort Worth Center
Thu 02:06:20 PM 33.3300 -97.6547 11° North 393 452 35,000  Level Fort Worth Center
Thu 02:07:20 PM 33.4133 -97.6350 11° North 393 452 35,000 -250 Level Fort Worth Center
Thu 02:08:20 PM 33.5303 -97.6053 12° North 393 452 34,500 -1,150 Descending Fort Worth Center
Thu 02:09:20 PM 33.6411 -97.5806 11° North 393 452 32,700 -1,800 Descending Fort Worth Center
Thu 02:10:20 PM 33.7475 -97.5558 11° North 393 452 30,900 -1,800 Descending Fort Worth Center
Thu 02:11:20 PM 33.8561 -97.5286 12° North 387 445 29,100 -1,800 Descending Fort Worth Center
Thu 02:12:20 PM 33.9625 -97.5011 12° North 392 451 27,300 -1,850 Descending Fort Worth Center
Thu 02:13:20 PM 34.0711 -97.4761 11° North 392 451 25,400 -1,650 Descending Fort Worth Center
Thu 02:14:20 PM 34.1775 -97.4536 10° North 378 435 24,000 -850 Descending Fort Worth Center
Thu 02:15:20 PM 34.2778 -97.4311 11° North 371 427 23,700 -1,250 Descending Fort Worth Center
Thu 02:16:20 PM 34.3778 -97.4061 12° North 366 421 21,500 -2,200 Descending Fort Worth Center
Thu 02:17:20 PM 34.4717 -97.3808 13° North 353 406 19,300 -1,950 Descending Fort Worth Center
Thu 02:18:20 PM 34.5636 -97.3581 12° North 346 398 17,600 -1,800 Descending Fort Worth Center
Thu 02:19:20 PM 34.6489 -97.3378 11° North 334 384 15,700 -1,850 Descending Fort Worth Center
Thu 02:20:20 PM 34.7367 -97.3175 11° North 323 372 13,900 -1,867 Descending Fort Worth Center
Thu 02:20:50 PM 34.7806 -97.3072 11° North 319 367 12,900 -1,881 Descending Fort Worth Center
Thu 02:21:27 PM 34.8347 -97.2922 13° North 319 367 11,800 -1,267 Descending Fort Worth Center
Thu 02:22:20 PM 34.9036 -97.3097 348° North 296 341 11,000 -800 Descending Fort Worth Center
Thu 02:22:27 PM 34.9119 -97.3200 315° West 299 344 11,000 -700 Level Fort Worth Center
Thu 02:23:20 PM 34.9703 -97.3653 328° Northwest 283 326 10,300 -1,082 Descending Fort Worth Center
Thu 02:23:28 PM 34.9808 -97.3756 321° Northwest 289 333 9,900 -1,652 Descending Fort Worth Center
Thu 02:24:29 PM 35.0433 -97.4211 329° Northwest 268 308 8,400 -1,393 Descending Fort Worth Center
Thu 02:25:20 PM 35.0956 -97.4642 326° Northwest 272 313 7,300 -1,400 Descending Fort Worth Center
Thu 02:25:29 PM 35.1039 -97.4719 323° Northwest 257 296 7,000 -1,400 Descending Fort Worth Center
Thu 02:26:20 PM 35.1558 -97.5150 326° Northwest 267 307 5,900 -1,377 Descending Fort Worth Center
Thu 02:26:30 PM 35.1683 -97.5278 320° Northwest 267 307 5,600 -1,200 Descending Fort Worth Center
Thu 02:27:20 PM 35.2164 -97.5661 327° Northwest 267 307 4,700 -1,164 Descending Fort Worth Center
Thu 02:27:37 PM 35.2350 -97.5814 326° Northwest 261 300 4,300 -700 Descending Fort Worth Center
Thu 02:28:20 PM 35.2808 -97.5992 342° North 260 299 4,000 -300 Descending Fort Worth Center
Thu 02:28:37 PM 35.2956 -97.6094 330° Northwest 228 262 4,000 -100 Level Fort Worth Center
Thu 02:29:20 PM 35.3372 -97.6247 343° North 238 274 3,900 -393 Descending Fort Worth Center
Thu 02:29:38 PM 35.3539 -97.6325 339° North 205 236 3,600  Descending Fort Worth Center
Thu 02:30:20 PM 35.3914 -97.6403 350° North 217 250 3,900 393 Climbing Fort Worth Center
Thu 02:30:39 PM 35.4081 -97.6325 21° North 192 221 4,000 -400 Climbing Fort Worth Center
Thu 02:31:20 PM 35.4414 -97.6428 346° North 194 223 3,500 -900 Descending Fort Worth Center
Thu 02:31:39 PM 35.4539 -97.6456 350° North 163 188 3,100 -1,200 Descending Fort Worth Center
Thu 02:32:20 PM 35.4811 -97.6481 356° North 167 192 2,300 -984 Descending Fort Worth Center
Thu 02:32:40 PM 35.4914 -97.6481 360° North 114 131 2,100 -700 Descending Fort Worth Center
Thu 02:33:20 PM 35.5122 -97.6481 360° North 132 152 1,600 -360 Descending Fort Worth Center
Thu 02:34:20 PM 35.5478 -97.6508 356° North 132 152 1,500 16,700 Descending Fort Worth Center
Thu 02:35:20 PM 35.5853 -97.6508 360° North 132 152 35,000 33,500 Climbing Fort Worth Center

Login

Don't have an account? Register now (free) for customized features, flight alerts, and more!